createdAt,value
2023-05-17T00:02:16.931Z,101356.94
2023-05-17T00:04:45.102Z,101349.50
2023-05-17T00:07:14.437Z,101374.59
2023-05-17T00:09:42.185Z,101344.34
2023-05-17T00:12:10.054Z,101333.94
2023-05-17T00:14:37.859Z,101319.19
2023-05-17T00:17:05.846Z,101312.63
2023-05-17T00:19:33.605Z,101326.28
2023-05-17T00:25:50.108Z,101351.34
2023-05-17T00:28:17.938Z,101315.13
2023-05-17T00:30:45.669Z,101328.03
2023-05-17T00:33:13.440Z,101349.16
2023-05-17T00:35:41.196Z,101326.09
2023-05-17T00:38:08.998Z,101311.47
2023-05-17T00:40:36.765Z,101290.91
2023-05-17T00:43:05.886Z,101321.13
2023-05-17T00:45:33.669Z,101354.25
2023-05-17T00:48:01.493Z,101386.63
2023-05-17T00:50:29.412Z,101418.44
2023-05-17T00:52:57.701Z,101467.72
2023-05-17T00:55:25.692Z,101503.69
2023-05-17T00:57:53.599Z,101542.47
2023-05-17T01:00:23.092Z,101566.50
2023-05-17T01:02:51.014Z,101569.94
2023-05-17T01:05:18.952Z,101580.91
2023-05-17T01:07:46.718Z,101593.91
2023-05-17T01:10:14.708Z,101601.78
2023-05-17T01:12:56.952Z,101594.63
2023-05-17T01:15:29.732Z,101580.28
2023-05-17T01:18:10.524Z,101581.88
2023-05-17T01:20:40.172Z,101547.59
2023-05-17T01:23:25.470Z,101557.72
2023-05-17T01:26:01.555Z,101535.63
2023-05-17T01:28:32.678Z,101574.34
2023-05-17T01:31:03.374Z,101576.63
2023-05-17T01:33:32.183Z,101584.44
2023-05-17T01:35:59.973Z,101587.66
2023-05-17T01:38:27.704Z,101612.25
2023-05-17T01:41:00.235Z,101612.00
2023-05-17T01:43:40.675Z,101622.00
2023-05-17T01:46:17.228Z,101619.59
2023-05-17T01:48:52.983Z,101624.28
2023-05-17T01:51:22.553Z,101615.03
2023-05-17T01:53:58.158Z,101623.47
2023-05-17T01:56:34.616Z,101621.53
2023-05-17T01:59:07.726Z,101627.16
2023-05-17T02:01:37.259Z,101633.38
2023-05-17T02:04:05.837Z,101632.06
2023-05-17T02:06:33.729Z,101634.75
2023-05-17T02:09:03.039Z,101636.94
2023-05-17T02:11:32.306Z,101637.00
2023-05-17T02:14:00.475Z,101636.09
2023-05-17T02:16:29.624Z,101644.66
2023-05-17T02:18:57.527Z,101653.66
2023-05-17T02:21:25.448Z,101645.25
2023-05-17T02:23:53.414Z,101655.91
2023-05-17T02:26:21.163Z,101649.00
2023-05-17T02:28:48.937Z,101646.00
2023-05-17T02:31:16.842Z,101665.19
2023-05-17T02:33:46.199Z,101662.31
2023-05-17T02:36:13.981Z,101660.34
2023-05-17T02:38:41.713Z,101649.50
2023-05-17T02:41:09.749Z,101669.72
2023-05-17T02:43:38.105Z,101668.38
2023-05-17T02:46:06.447Z,101664.31
2023-05-17T02:48:34.239Z,101670.84
2023-05-17T02:51:03.370Z,101681.38
2023-05-17T02:53:31.219Z,101665.31
2023-05-17T02:55:59.055Z,101671.03
2023-05-17T02:58:27.136Z,101682.53
2023-05-17T03:00:54.943Z,101692.47
2023-05-17T03:03:22.826Z,101681.59
2023-05-17T03:05:50.752Z,101695.19
2023-05-17T03:08:19.922Z,101695.66
2023-05-17T03:10:48.179Z,101686.00
2023-05-17T03:13:15.999Z,101718.72
2023-05-17T03:15:43.752Z,101704.34
2023-05-17T03:18:11.635Z,101705.88
2023-05-17T03:20:39.779Z,101719.19
2023-05-17T03:23:07.562Z,101712.38
2023-05-17T03:25:36.713Z,101712.78
2023-05-17T03:28:04.586Z,101708.75
2023-05-17T03:30:32.416Z,101704.97
2023-05-17T03:33:00.290Z,101703.41
2023-05-17T03:35:28.333Z,101713.38
2023-05-17T03:37:56.361Z,101732.44
2023-05-17T03:40:24.246Z,101728.25
2023-05-17T03:42:54.156Z,101747.31
2023-05-17T03:45:22.032Z,101744.47
2023-05-17T03:47:49.796Z,101763.72
2023-05-17T03:50:17.609Z,101771.31
2023-05-17T03:52:46.200Z,101758.72
2023-05-17T03:55:13.986Z,101759.38
2023-05-17T03:57:41.737Z,101760.13
2023-05-17T04:00:12.496Z,101771.19
2023-05-17T04:02:40.271Z,101764.31
2023-05-17T04:05:08.772Z,101780.56
2023-05-17T04:07:36.819Z,101765.44
2023-05-17T04:10:04.814Z,101795.06
2023-05-17T04:12:32.636Z,101804.22
2023-05-17T04:15:01.082Z,101783.81
2023-05-17T04:17:30.211Z,101787.94
2023-05-17T04:19:58.018Z,101806.75
2023-05-17T04:22:27.268Z,101815.34
2023-05-17T04:24:55.035Z,101799.28
2023-05-17T04:27:23.216Z,101819.56
2023-05-17T04:29:51.315Z,101822.66
2023-05-17T04:32:19.109Z,101833.38
2023-05-17T04:34:48.239Z,101832.38
2023-05-17T04:37:16.281Z,101836.06
2023-05-17T04:39:44.005Z,101832.13
2023-05-17T04:42:11.990Z,101844.94
2023-05-17T04:44:39.731Z,101848.44
2023-05-17T04:47:08.158Z,101855.09
2023-05-17T04:49:36.099Z,101872.91
2023-05-17T04:52:06.348Z,101869.31
2023-05-17T04:54:34.146Z,101869.84
2023-05-17T04:57:01.992Z,101862.63
2023-05-17T04:59:29.793Z,101884.13
2023-05-17T05:01:57.551Z,101886.28
2023-05-17T05:04:25.598Z,101907.09
2023-05-17T05:06:53.443Z,101905.88
2023-05-17T05:09:22.581Z,101902.47
2023-05-17T05:11:50.465Z,101906.97
2023-05-17T05:14:18.278Z,101908.66
2023-05-17T05:16:46.053Z,101927.28
2023-05-17T05:19:13.965Z,101925.31
2023-05-17T05:21:41.828Z,101924.00
2023-05-17T05:24:09.777Z,101925.13
2023-05-17T05:26:38.900Z,101934.00
2023-05-17T05:29:06.679Z,101931.72
2023-05-17T05:31:34.465Z,101941.78
2023-05-17T05:34:02.297Z,101933.63
2023-05-17T05:36:30.237Z,101940.94
2023-05-17T05:38:58.009Z,101948.78
2023-05-17T05:41:25.806Z,101957.94
2023-05-17T05:43:55.017Z,101955.84
2023-05-17T05:46:22.771Z,101955.63
2023-05-17T05:48:50.669Z,101956.81
2023-05-17T05:51:20.702Z,101962.13
2023-05-17T05:53:50.333Z,101983.19
2023-05-17T05:56:18.058Z,101976.56
2023-05-17T05:58:46.088Z,101974.78
2023-05-17T06:01:15.221Z,101979.13
2023-05-17T06:03:42.996Z,101985.28
2023-05-17T06:06:11.435Z,101993.47
2023-05-17T06:08:39.319Z,101994.19
2023-05-17T06:11:07.102Z,101988.06
2023-05-17T06:13:34.864Z,102010.94
2023-05-17T06:16:02.617Z,101999.91
2023-05-17T06:18:31.803Z,101998.84
2023-05-17T06:20:59.701Z,102020.78
2023-05-17T06:23:27.490Z,102004.16
2023-05-17T06:25:55.729Z,102032.66
2023-05-17T06:28:23.715Z,102020.00
2023-05-17T06:30:51.488Z,102035.78
2023-05-17T06:33:19.328Z,102033.88
2023-05-17T06:38:22.360Z,102039.91
2023-05-17T06:40:53.089Z,102045.00
2023-05-17T06:43:21.154Z,102054.38
2023-05-17T06:45:48.910Z,102052.91
2023-05-17T06:48:16.975Z,102043.81
2023-05-17T06:50:44.942Z,102049.38
2023-05-17T06:53:14.367Z,102048.50
2023-05-17T06:55:43.160Z,102050.63
2023-05-17T06:58:11.103Z,102059.06
2023-05-17T07:00:39.023Z,102057.47
2023-05-17T07:03:06.869Z,102067.41
2023-05-17T07:05:35.399Z,102061.69
2023-05-17T07:08:03.240Z,102064.81
2023-05-17T07:10:32.529Z,102098.50
2023-05-17T07:13:00.460Z,102081.22
2023-05-17T07:15:30.551Z,102079.22
2023-05-17T07:17:59.292Z,102079.50
2023-05-17T07:20:27.235Z,102079.69
2023-05-17T07:22:56.279Z,102083.53
2023-05-17T07:25:24.053Z,102087.84
2023-05-17T07:27:53.328Z,102101.28
2023-05-17T07:30:23.364Z,102094.34
2023-05-17T07:32:51.859Z,102102.00
2023-05-17T07:35:26.219Z,102103.00
2023-05-17T07:37:54.002Z,102111.38
2023-05-17T07:40:22.080Z,102113.88
2023-05-17T07:42:50.144Z,102111.97
2023-05-17T07:45:19.724Z,102119.81
2023-05-17T07:47:47.569Z,102132.31
2023-05-17T07:50:15.468Z,102126.13
2023-05-17T07:52:45.987Z,102137.94
2023-05-17T07:55:16.028Z,102146.16
2023-05-17T07:57:44.908Z,102158.34
2023-05-17T08:00:13.770Z,102170.44
2023-05-17T08:02:44.368Z,102165.72
2023-05-17T08:05:12.183Z,102156.66
2023-05-17T08:07:40.205Z,102156.75
2023-05-17T08:10:08.689Z,102167.19
2023-05-17T08:12:36.539Z,102169.69
2023-05-17T08:15:05.129Z,102172.84
2023-05-17T08:17:32.917Z,102171.19
2023-05-17T08:20:02.112Z,102186.22
2023-05-17T08:22:29.884Z,102181.59
2023-05-17T08:24:57.641Z,102166.09
2023-05-17T08:27:28.132Z,102182.28
2023-05-17T08:29:57.718Z,102196.56
2023-05-17T08:32:26.178Z,102195.59
2023-05-17T08:34:54.661Z,102204.28
2023-05-17T08:37:24.407Z,102207.81
2023-05-17T08:39:52.470Z,102193.41
2023-05-17T08:42:25.188Z,102201.22
2023-05-17T08:44:54.008Z,102209.00
2023-05-17T08:47:29.792Z,102207.44
2023-05-17T08:50:00.413Z,102221.41
2023-05-17T08:52:32.820Z,102222.63
2023-05-17T08:55:06.045Z,102220.28
2023-05-17T08:57:36.185Z,102218.78
2023-05-17T09:00:06.860Z,102218.97
2023-05-17T09:02:35.009Z,102212.84
2023-05-17T09:05:03.747Z,102229.13
2023-05-17T09:07:33.060Z,102229.72
2023-05-17T09:10:00.849Z,102228.94
2023-05-17T09:12:29.776Z,102235.31
2023-05-17T09:15:14.711Z,102234.00
2023-05-17T09:17:43.536Z,102226.16
2023-05-17T09:20:12.135Z,102247.41
2023-05-17T09:22:41.827Z,102235.81
2023-05-17T09:25:10.238Z,102228.19
2023-05-17T09:27:37.976Z,102242.69
2023-05-17T09:30:12.180Z,102244.38
2023-05-17T09:32:45.993Z,102242.78
2023-05-17T09:35:14.117Z,102243.50
2023-05-17T09:37:45.200Z,102245.19
2023-05-17T09:40:23.349Z,102245.22
2023-05-17T09:42:51.368Z,102250.75
2023-05-17T09:45:23.792Z,102243.47
2023-05-17T09:47:53.023Z,102252.38
2023-05-17T09:50:25.317Z,102249.78
2023-05-17T09:52:55.322Z,102243.94
2023-05-17T09:55:27.601Z,102257.94
2023-05-17T09:58:04.158Z,102263.13
2023-05-17T10:00:32.608Z,102254.09
2023-05-17T10:03:02.085Z,102246.06
2023-05-17T10:05:30.329Z,102260.44
2023-05-17T10:07:59.994Z,102254.75
2023-05-17T10:10:28.351Z,102248.38
2023-05-17T10:12:57.466Z,102254.50
2023-05-17T10:15:25.824Z,102264.09
2023-05-17T10:17:55.097Z,102259.88
2023-05-17T10:20:22.986Z,102266.22
2023-05-17T10:22:51.521Z,102266.69
2023-05-17T10:25:21.194Z,102275.81
2023-05-17T10:27:50.550Z,102262.13
2023-05-17T10:30:19.304Z,102256.75
2023-05-17T10:32:47.674Z,102245.28
2023-05-17T10:35:16.627Z,102260.53
2023-05-17T10:37:44.420Z,102273.06
2023-05-17T10:40:14.269Z,102268.75
2023-05-17T10:42:46.712Z,102256.25
2023-05-17T10:45:14.933Z,102264.63
2023-05-17T10:47:43.974Z,102253.44
2023-05-17T10:50:14.936Z,102273.19
2023-05-17T10:52:48.248Z,102264.19
2023-05-17T10:55:20.131Z,102277.56
2023-05-17T10:58:10.424Z,102283.91
2023-05-17T11:00:41.016Z,102246.56
2023-05-17T11:03:14.322Z,102225.22
2023-05-17T11:05:47.766Z,102240.56
2023-05-17T11:08:18.010Z,102249.00
2023-05-17T11:11:19.589Z,102240.44
2023-05-17T11:13:56.200Z,102248.56
2023-05-17T11:16:29.126Z,102251.16
2023-05-17T11:19:07.395Z,102237.38
2023-05-17T11:21:35.929Z,102230.38
2023-05-17T11:24:05.407Z,102268.16
2023-05-17T11:26:37.835Z,102266.84
2023-05-17T11:29:10.814Z,102273.34
2023-05-17T11:31:45.017Z,102269.34
2023-05-17T11:34:13.201Z,102253.97
2023-05-17T11:36:51.792Z,102245.75
2023-05-17T11:39:22.889Z,102258.72
2023-05-17T11:41:52.026Z,102257.72
2023-05-17T11:44:27.005Z,102257.41
2023-05-17T11:47:02.810Z,102270.41
2023-05-17T11:49:36.262Z,102265.94
2023-05-17T11:52:05.381Z,102260.19
2023-05-17T11:54:33.648Z,102266.56
2023-05-17T11:57:02.763Z,102257.50
2023-05-17T11:59:38.581Z,102263.72
2023-05-17T12:02:06.546Z,102266.72
2023-05-17T12:04:37.497Z,102259.75
2023-05-17T12:07:05.672Z,102272.38
2023-05-17T12:09:33.523Z,102273.94
2023-05-17T12:12:04.711Z,102295.13
2023-05-17T12:14:34.018Z,102298.94
2023-05-17T12:17:04.276Z,102306.97
2023-05-17T12:19:33.024Z,102302.19
2023-05-17T12:22:08.428Z,102298.59
2023-05-17T12:24:39.945Z,102276.66
2023-05-17T12:27:07.774Z,102274.75
2023-05-17T12:29:36.931Z,102272.00
2023-05-17T12:32:06.672Z,102297.47
2023-05-17T12:34:34.853Z,102290.50
2023-05-17T12:37:02.750Z,102287.97
2023-05-17T12:39:32.557Z,102291.03
2023-05-17T12:42:01.745Z,102296.91
2023-05-17T12:44:29.466Z,102303.34
2023-05-17T12:46:58.647Z,102287.97
2023-05-17T12:49:26.516Z,102297.38
2023-05-17T12:51:54.290Z,102292.69
2023-05-17T12:54:29.503Z,102311.28
2023-05-17T12:56:57.892Z,102332.25
2023-05-17T12:59:26.358Z,102323.50
2023-05-17T13:01:56.624Z,102310.63
2023-05-17T13:04:32.980Z,102303.47
2023-05-17T13:07:03.222Z,102312.88
2023-05-17T13:09:32.416Z,102331.16
2023-05-17T13:12:01.947Z,102302.25
2023-05-17T13:14:37.846Z,102337.06
2023-05-17T13:17:06.908Z,102311.59
2023-05-17T13:19:36.891Z,102302.56
2023-05-17T13:22:05.949Z,102314.84
2023-05-17T13:24:36.342Z,102307.03
2023-05-17T13:27:05.186Z,102309.84
2023-05-17T13:29:39.616Z,102335.78
2023-05-17T13:32:09.799Z,102314.63
2023-05-17T13:34:39.312Z,102313.97
2023-05-17T13:37:11.601Z,102332.44
2023-05-17T13:39:40.606Z,102312.69
2023-05-17T13:42:08.398Z,102336.84
2023-05-17T13:44:36.513Z,102310.63
2023-05-17T13:47:04.314Z,102319.38
2023-05-17T13:49:32.080Z,102321.75
2023-05-17T13:52:01.429Z,102360.47
2023-05-17T13:54:29.254Z,102329.84
2023-05-17T13:56:57.539Z,102332.91
2023-05-17T13:59:25.440Z,102326.44
2023-05-17T14:01:53.758Z,102310.69
2023-05-17T14:04:22.655Z,102307.56
2023-05-17T14:06:54.107Z,102326.03
2023-05-17T14:09:24.185Z,102326.44
2023-05-17T14:11:52.060Z,102325.56
2023-05-17T14:14:20.578Z,102319.09
2023-05-17T14:16:48.347Z,102338.16
2023-05-17T14:19:16.240Z,102340.22
2023-05-17T14:21:44.149Z,102335.66
2023-05-17T14:24:11.880Z,102338.81
2023-05-17T14:26:41.865Z,102315.94
2023-05-17T14:29:09.703Z,102329.13
2023-05-17T14:31:37.881Z,102325.88
2023-05-17T14:34:05.743Z,102337.00
2023-05-17T14:36:36.254Z,102351.69
2023-05-17T14:39:04.156Z,102328.50
2023-05-17T14:41:32.103Z,102324.13
2023-05-17T14:44:01.298Z,102317.06
2023-05-17T14:46:29.111Z,102342.94
2023-05-17T14:48:57.374Z,102326.66
2023-05-17T14:51:25.204Z,102336.09
2023-05-17T14:53:54.257Z,102345.00
2023-05-17T14:56:22.292Z,102347.44
2023-05-17T14:58:50.129Z,102340.66
2023-05-17T15:01:19.323Z,102349.38
2023-05-17T15:03:47.373Z,102342.47
2023-05-17T15:06:15.362Z,102346.78
2023-05-17T15:08:43.148Z,102354.97
2023-05-17T15:11:10.900Z,102367.28
2023-05-17T15:13:38.652Z,102356.88
2023-05-17T15:16:07.035Z,102350.69
2023-05-17T15:18:37.870Z,102350.06
2023-05-17T15:21:06.123Z,102351.84
2023-05-17T15:23:33.881Z,102368.38
2023-05-17T15:26:01.635Z,102353.88
2023-05-17T15:28:29.388Z,102354.22
2023-05-17T15:31:06.185Z,102348.31
2023-05-17T15:33:34.038Z,102355.91
2023-05-17T15:36:03.196Z,102353.81
2023-05-17T15:38:30.967Z,102354.66
2023-05-17T15:41:03.834Z,102353.03
2023-05-17T15:43:31.996Z,102367.38
2023-05-17T15:45:59.730Z,102370.63
2023-05-17T15:48:29.155Z,102363.78
2023-05-17T15:50:57.408Z,102356.81
2023-05-17T15:53:27.237Z,102359.34
2023-05-17T15:55:55.327Z,102375.16
2023-05-17T15:58:24.658Z,102371.06
2023-05-17T16:00:52.470Z,102367.69
2023-05-17T16:03:20.433Z,102379.09
2023-05-17T16:05:48.358Z,102383.44
2023-05-17T16:08:16.524Z,102380.72
2023-05-17T16:10:45.946Z,102384.75
2023-05-17T16:13:13.867Z,102398.81
2023-05-17T16:15:41.730Z,102398.22
2023-05-17T16:18:10.678Z,102400.47
2023-05-17T16:20:38.718Z,102414.97
2023-05-17T16:23:07.311Z,102407.94
2023-05-17T16:25:36.082Z,102411.03
2023-05-17T16:28:05.351Z,102418.25
2023-05-17T16:30:33.132Z,102414.16
2023-05-17T16:33:01.181Z,102409.31
2023-05-17T16:35:29.415Z,102418.25
2023-05-17T16:37:57.292Z,102429.19
2023-05-17T16:40:25.029Z,102440.88
2023-05-17T16:42:52.799Z,102429.59
2023-05-17T16:45:21.950Z,102451.81
2023-05-17T16:47:49.710Z,102437.22
2023-05-17T16:50:17.621Z,102449.84
2023-05-17T16:52:45.466Z,102445.63
2023-05-17T16:55:13.283Z,102444.38
2023-05-17T16:57:41.980Z,102448.78
2023-05-17T17:00:12.100Z,102460.09
2023-05-17T17:02:41.331Z,102465.16
2023-05-17T17:05:10.812Z,102464.47
2023-05-17T17:07:38.598Z,102469.88
2023-05-17T17:10:07.278Z,102468.84
2023-05-17T17:12:35.016Z,102484.66
2023-05-17T17:15:03.741Z,102476.81
2023-05-17T17:17:32.839Z,102472.69
2023-05-17T17:20:02.385Z,102473.06
2023-05-17T17:22:30.143Z,102471.06
2023-05-17T17:24:58.013Z,102479.94
2023-05-17T17:27:25.840Z,102482.78
2023-05-17T17:29:55.313Z,102481.97
2023-05-17T17:32:23.129Z,102480.69
2023-05-17T17:34:50.965Z,102485.34
2023-05-17T17:37:20.073Z,102486.56
2023-05-17T17:39:47.821Z,102497.81
2023-05-17T17:42:15.668Z,102491.97
2023-05-17T17:44:43.441Z,102504.63
2023-05-17T17:47:11.519Z,102491.28
2023-05-17T17:49:39.366Z,102487.41
2023-05-17T17:52:07.306Z,102489.84
2023-05-17T17:54:36.438Z,102500.06
2023-05-17T17:57:04.572Z,102495.78
2023-05-17T17:59:32.317Z,102491.47
2023-05-17T18:02:00.651Z,102498.25
2023-05-17T18:04:28.519Z,102500.97
2023-05-17T18:06:56.605Z,102500.94
2023-05-17T18:09:24.454Z,102516.78
2023-05-17T18:11:53.562Z,102510.91
2023-05-17T18:14:21.738Z,102507.44
2023-05-17T18:16:49.526Z,102517.34
2023-05-17T18:19:17.395Z,102521.38
2023-05-17T18:21:45.492Z,102519.66
2023-05-17T18:24:13.483Z,102530.66
2023-05-17T18:26:41.265Z,102527.59
2023-05-17T18:29:10.456Z,102531.59
2023-05-17T18:31:38.333Z,102534.53
2023-05-17T18:34:06.116Z,102534.38
2023-05-17T18:36:34.258Z,102536.59
2023-05-17T18:39:02.092Z,102537.25
2023-05-17T18:41:29.882Z,102538.63
2023-05-17T18:44:01.618Z,102531.53
2023-05-17T18:46:31.188Z,102545.22
2023-05-17T18:48:59.018Z,102543.28
2023-05-17T18:51:27.578Z,102541.63
2023-05-17T18:53:55.320Z,102541.91
2023-05-17T18:56:25.088Z,102546.03
2023-05-17T18:58:53.000Z,102545.56
2023-05-17T19:01:21.055Z,102540.31
2023-05-17T19:03:51.522Z,102541.47
2023-05-17T19:06:19.713Z,102541.94
2023-05-17T19:08:48.548Z,102539.19
2023-05-17T19:11:16.408Z,102537.25
2023-05-17T19:13:44.447Z,102532.31
2023-05-17T19:16:12.284Z,102524.75
2023-05-17T19:18:40.171Z,102539.69
2023-05-17T19:21:09.332Z,102529.53
2023-05-17T19:23:37.703Z,102518.81
2023-05-17T19:26:05.615Z,102531.78
2023-05-17T19:28:34.915Z,102533.03
2023-05-17T19:31:03.753Z,102533.03
2023-05-17T19:33:34.049Z,102535.59
2023-05-17T19:36:02.116Z,102535.16
2023-05-17T19:38:32.573Z,102531.00
2023-05-17T19:41:00.480Z,102534.53
2023-05-17T19:43:28.755Z,102525.50
2023-05-17T19:45:56.632Z,102521.56
2023-05-17T19:48:25.174Z,102524.34
2023-05-17T19:50:56.104Z,102528.91
2023-05-17T19:53:24.682Z,102535.78
2023-05-17T19:55:54.881Z,102530.94
2023-05-17T19:58:23.913Z,102535.03
2023-05-17T20:00:51.768Z,102532.81
2023-05-17T20:03:20.353Z,102529.53
2023-05-17T20:05:48.172Z,102534.72
2023-05-17T20:08:15.927Z,102532.00
2023-05-17T20:10:43.753Z,102537.63
2023-05-17T20:13:13.001Z,102533.03
2023-05-17T20:15:41.018Z,102537.63
2023-05-17T20:18:09.226Z,102525.56
2023-05-17T20:20:37.114Z,102528.91
2023-05-17T20:23:04.884Z,102526.50
2023-05-17T20:25:32.622Z,102526.50
2023-05-17T20:28:00.565Z,102522.16
2023-05-17T20:30:30.185Z,102514.38
2023-05-17T20:32:58.172Z,102524.22
2023-05-17T20:35:26.002Z,102517.06
2023-05-17T20:37:53.764Z,102526.94
2023-05-17T20:40:21.581Z,102513.81
2023-05-17T20:42:53.181Z,102510.38
2023-05-17T20:45:21.614Z,102509.13
2023-05-17T20:47:51.373Z,102507.94
2023-05-17T20:50:27.790Z,102520.50
2023-05-17T20:52:56.595Z,102516.03
2023-05-17T20:55:24.504Z,102527.13
2023-05-17T20:57:52.234Z,102521.31
2023-05-17T21:00:21.180Z,102530.28
2023-05-17T21:02:50.670Z,102527.72
2023-05-17T21:05:18.419Z,102533.16
2023-05-17T21:07:46.776Z,102527.91
2023-05-17T21:10:14.699Z,102533.97
2023-05-17T21:12:42.416Z,102534.72
2023-05-17T21:15:16.969Z,102545.72
2023-05-17T21:17:45.405Z,102544.81
2023-05-17T21:20:15.220Z,102542.66
2023-05-17T21:22:42.963Z,102553.38
2023-05-17T21:25:11.351Z,102555.09
2023-05-17T21:27:39.081Z,102565.63
2023-05-17T21:30:08.221Z,102558.69
2023-05-17T21:32:36.157Z,102566.34
2023-05-17T21:35:04.087Z,102568.81
2023-05-17T21:37:33.222Z,102562.13
2023-05-17T21:40:01.303Z,102574.69
2023-05-17T21:42:29.079Z,102559.78
2023-05-17T21:44:57.419Z,102574.63
2023-05-17T21:47:25.217Z,102571.94
2023-05-17T21:49:53.229Z,102587.69
2023-05-17T21:52:20.973Z,102596.44
2023-05-17T21:54:50.615Z,102597.28
2023-05-17T21:57:20.837Z,102600.22
2023-05-17T21:59:48.889Z,102594.75
2023-05-17T22:02:16.784Z,102587.69
2023-05-17T22:04:44.686Z,102596.66
2023-05-17T22:07:13.318Z,102597.06
2023-05-17T22:09:41.157Z,102598.63
2023-05-17T22:12:12.268Z,102597.28
2023-05-17T22:14:44.481Z,102601.78
2023-05-17T22:17:12.293Z,102607.03
2023-05-17T22:19:41.654Z,102615.13
2023-05-17T22:22:09.610Z,102625.84
2023-05-17T22:24:37.920Z,102607.78
2023-05-17T22:27:06.162Z,102615.00
2023-05-17T22:29:35.301Z,102611.06
2023-05-17T22:32:03.180Z,102620.34
2023-05-17T22:34:31.884Z,102629.84
2023-05-17T22:36:59.882Z,102624.25
2023-05-17T22:39:27.951Z,102625.16
2023-05-17T22:41:55.727Z,102628.09
2023-05-17T22:44:23.475Z,102627.31
2023-05-17T22:46:52.729Z,102633.97
2023-05-17T22:49:20.566Z,102629.97
2023-05-17T22:51:48.326Z,102630.13
2023-05-17T22:54:16.164Z,102630.31
2023-05-17T22:56:43.935Z,102630.66
2023-05-17T22:59:11.728Z,102622.44
2023-05-17T23:01:39.543Z,102629.28
2023-05-17T23:04:08.748Z,102636.19
2023-05-17T23:06:36.569Z,102631.84
2023-05-17T23:09:05.186Z,102626.19
2023-05-17T23:11:34.802Z,102622.22
2023-05-17T23:14:03.977Z,102611.94
2023-05-17T23:16:31.770Z,102620.09
2023-05-17T23:19:00.146Z,102616.19
2023-05-17T23:21:33.148Z,102620.56
2023-05-17T23:24:00.987Z,102623.50
2023-05-17T23:26:29.400Z,102628.44
2023-05-17T23:28:57.164Z,102623.94
2023-05-17T23:31:25.693Z,102627.06
2023-05-17T23:33:53.776Z,102633.13
2023-05-17T23:36:21.785Z,102632.38
2023-05-17T23:38:50.929Z,102628.97
2023-05-17T23:41:19.724Z,102625.25
2023-05-17T23:43:48.029Z,102622.44
2023-05-17T23:46:19.996Z,102613.88
2023-05-17T23:48:50.512Z,102623.63
2023-05-17T23:51:20.074Z,102614.81
2023-05-17T23:53:49.076Z,102621.47
2023-05-17T23:56:18.546Z,102629.03
2023-05-17T23:58:46.920Z,102621.47
